sensor_id;sensor_type;location;lat;lon;timestamp;P1;durP1;ratioP1;P2;durP2;ratioP2
49183;SDS011;35021;49.214;12.270;2023-07-13T00:02:19;3.67;;;2.85;;
49183;SDS011;35021;49.214;12.270;2023-07-13T00:04:46;5.43;;;3.35;;
49183;SDS011;35021;49.214;12.270;2023-07-13T00:07:14;7.18;;;3.20;;
49183;SDS011;35021;49.214;12.270;2023-07-13T00:09:40;3.75;;;2.97;;
49183;SDS011;35021;49.214;12.270;2023-07-13T00:12:25;5.45;;;2.80;;
49183;SDS011;35021;49.214;12.270;2023-07-13T00:14:59;4.90;;;2.90;;
49183;SDS011;35021;49.214;12.270;2023-07-13T00:17:27;4.95;;;3.08;;
49183;SDS011;35021;49.214;12.270;2023-07-13T00:19:56;4.85;;;2.65;;
49183;SDS011;35021;49.214;12.270;2023-07-13T00:22:25;4.32;;;2.67;;
49183;SDS011;35021;49.214;12.270;2023-07-13T00:24:53;5.13;;;3.05;;
49183;SDS011;35021;49.214;12.270;2023-07-13T00:27:24;6.22;;;3.08;;
49183;SDS011;35021;49.214;12.270;2023-07-13T00:29:53;3.95;;;2.95;;
49183;SDS011;35021;49.214;12.270;2023-07-13T00:32:20;4.18;;;2.55;;
49183;SDS011;35021;49.214;12.270;2023-07-13T00:34:47;3.45;;;2.50;;
49183;SDS011;35021;49.214;12.270;2023-07-13T00:37:14;4.68;;;2.42;;
49183;SDS011;35021;49.214;12.270;2023-07-13T00:39:41;5.40;;;2.78;;
49183;SDS011;35021;49.214;12.270;2023-07-13T00:42:09;4.57;;;3.03;;
49183;SDS011;35021;49.214;12.270;2023-07-13T00:44:36;4.82;;;2.83;;
49183;SDS011;35021;49.214;12.270;2023-07-13T00:47:06;6.20;;;2.92;;
49183;SDS011;35021;49.214;12.270;2023-07-13T00:49:33;4.35;;;2.45;;
49183;SDS011;35021;49.214;12.270;2023-07-13T00:52:04;7.20;;;2.75;;
49183;SDS011;35021;49.214;12.270;2023-07-13T00:54:39;3.70;;;2.25;;
49183;SDS011;35021;49.214;12.270;2023-07-13T00:57:13;3.35;;;2.88;;
49183;SDS011;35021;49.214;12.270;2023-07-13T00:59:45;4.47;;;2.13;;
49183;SDS011;35021;49.214;12.270;2023-07-13T01:02:15;8.38;;;2.47;;
49183;SDS011;35021;49.214;12.270;2023-07-13T01:04:43;5.88;;;2.22;;
49183;SDS011;35021;49.214;12.270;2023-07-13T01:07:11;4.70;;;2.72;;
49183;SDS011;35021;49.214;12.270;2023-07-13T01:09:39;5.32;;;2.58;;
49183;SDS011;35021;49.214;12.270;2023-07-13T01:12:06;7.07;;;2.80;;
49183;SDS011;35021;49.214;12.270;2023-07-13T01:14:34;4.88;;;2.72;;
49183;SDS011;35021;49.214;12.270;2023-07-13T01:17:01;7.30;;;2.63;;
49183;SDS011;35021;49.214;12.270;2023-07-13T01:19:42;5.47;;;2.97;;
49183;SDS011;35021;49.214;12.270;2023-07-13T01:22:11;5.82;;;2.55;;
49183;SDS011;35021;49.214;12.270;2023-07-13T01:24:41;5.65;;;2.55;;
49183;SDS011;35021;49.214;12.270;2023-07-13T01:27:11;4.07;;;2.28;;
49183;SDS011;35021;49.214;12.270;2023-07-13T01:29:41;5.07;;;3.08;;
49183;SDS011;35021;49.214;12.270;2023-07-13T01:32:11;4.57;;;2.33;;
49183;SDS011;35021;49.214;12.270;2023-07-13T01:34:51;5.68;;;2.70;;
49183;SDS011;35021;49.214;12.270;2023-07-13T01:37:21;4.18;;;2.47;;
49183;SDS011;35021;49.214;12.270;2023-07-13T01:39:50;6.18;;;2.47;;
49183;SDS011;35021;49.214;12.270;2023-07-13T01:42:18;3.53;;;2.22;;
49183;SDS011;35021;49.214;12.270;2023-07-13T01:44:45;5.53;;;2.53;;
49183;SDS011;35021;49.214;12.270;2023-07-13T01:47:11;4.50;;;2.70;;
49183;SDS011;35021;49.214;12.270;2023-07-13T01:49:39;4.05;;;2.60;;
49183;SDS011;35021;49.214;12.270;2023-07-13T01:52:07;7.55;;;2.90;;
49183;SDS011;35021;49.214;12.270;2023-07-13T01:54:35;3.13;;;2.22;;
49183;SDS011;35021;49.214;12.270;2023-07-13T01:57:02;3.25;;;2.30;;
49183;SDS011;35021;49.214;12.270;2023-07-13T01:59:30;4.60;;;2.50;;
49183;SDS011;35021;49.214;12.270;2023-07-13T02:01:59;4.35;;;2.50;;
49183;SDS011;35021;49.214;12.270;2023-07-13T02:04:27;5.20;;;2.97;;
49183;SDS011;35021;49.214;12.270;2023-07-13T02:06:54;6.45;;;2.92;;
49183;SDS011;35021;49.214;12.270;2023-07-13T02:09:21;5.78;;;2.50;;
49183;SDS011;35021;49.214;12.270;2023-07-13T02:11:49;5.15;;;2.85;;
49183;SDS011;35021;49.214;12.270;2023-07-13T02:14:16;5.47;;;2.13;;
49183;SDS011;35021;49.214;12.270;2023-07-13T02:16:43;4.40;;;2.45;;
49183;SDS011;35021;49.214;12.270;2023-07-13T02:19:11;4.88;;;2.47;;
49183;SDS011;35021;49.214;12.270;2023-07-13T02:21:38;2.97;;;2.17;;
49183;SDS011;35021;49.214;12.270;2023-07-13T02:24:07;4.72;;;2.90;;
49183;SDS011;35021;49.214;12.270;2023-07-13T02:26:34;3.78;;;2.58;;
49183;SDS011;35021;49.214;12.270;2023-07-13T02:29:02;4.47;;;2.28;;
49183;SDS011;35021;49.214;12.270;2023-07-13T02:31:30;6.68;;;2.55;;
49183;SDS011;35021;49.214;12.270;2023-07-13T02:33:57;3.97;;;2.20;;
49183;SDS011;35021;49.214;12.270;2023-07-13T02:36:24;4.50;;;2.40;;
49183;SDS011;35021;49.214;12.270;2023-07-13T02:38:51;3.08;;;2.17;;
49183;SDS011;35021;49.214;12.270;2023-07-13T02:41:18;3.65;;;2.40;;
49183;SDS011;35021;49.214;12.270;2023-07-13T02:43:46;4.30;;;2.40;;
49183;SDS011;35021;49.214;12.270;2023-07-13T02:46:13;3.15;;;2.25;;
49183;SDS011;35021;49.214;12.270;2023-07-13T02:48:40;3.13;;;2.10;;
49183;SDS011;35021;49.214;12.270;2023-07-13T02:51:08;4.75;;;2.17;;
49183;SDS011;35021;49.214;12.270;2023-07-13T02:53:35;4.95;;;2.33;;
49183;SDS011;35021;49.214;12.270;2023-07-13T02:56:03;3.72;;;2.60;;
49183;SDS011;35021;49.214;12.270;2023-07-13T02:58:31;3.40;;;2.30;;
49183;SDS011;35021;49.214;12.270;2023-07-13T03:00:58;5.00;;;2.10;;
49183;SDS011;35021;49.214;12.270;2023-07-13T03:03:26;5.43;;;2.10;;
49183;SDS011;35021;49.214;12.270;2023-07-13T03:05:58;2.95;;;2.28;;
49183;SDS011;35021;49.214;12.270;2023-07-13T03:08:26;3.40;;;2.30;;
49183;SDS011;35021;49.214;12.270;2023-07-13T03:11:04;4.55;;;2.30;;
49183;SDS011;35021;49.214;12.270;2023-07-13T03:13:38;4.80;;;2.38;;
49183;SDS011;35021;49.214;12.270;2023-07-13T03:16:07;5.93;;;2.50;;
49183;SDS011;35021;49.214;12.270;2023-07-13T03:18:35;3.88;;;2.50;;
49183;SDS011;35021;49.214;12.270;2023-07-13T03:21:04;4.28;;;2.20;;
49183;SDS011;35021;49.214;12.270;2023-07-13T03:23:32;5.03;;;2.38;;
49183;SDS011;35021;49.214;12.270;2023-07-13T03:26:07;3.35;;;2.05;;
49183;SDS011;35021;49.214;12.270;2023-07-13T03:28:38;7.40;;;2.35;;
49183;SDS011;35021;49.214;12.270;2023-07-13T03:31:10;3.72;;;2.47;;
49183;SDS011;35021;49.214;12.270;2023-07-13T03:33:39;7.32;;;2.60;;
49183;SDS011;35021;49.214;12.270;2023-07-13T03:36:09;5.22;;;2.45;;
49183;SDS011;35021;49.214;12.270;2023-07-13T03:38:39;3.30;;;2.40;;
49183;SDS011;35021;49.214;12.270;2023-07-13T03:41:06;4.40;;;2.25;;
49183;SDS011;35021;49.214;12.270;2023-07-13T03:43:33;4.80;;;2.80;;
49183;SDS011;35021;49.214;12.270;2023-07-13T03:46:00;4.40;;;2.17;;
49183;SDS011;35021;49.214;12.270;2023-07-13T03:48:27;6.65;;;2.53;;
49183;SDS011;35021;49.214;12.270;2023-07-13T03:50:55;5.97;;;2.35;;
49183;SDS011;35021;49.214;12.270;2023-07-13T03:53:22;5.03;;;2.63;;
49183;SDS011;35021;49.214;12.270;2023-07-13T03:55:49;5.47;;;2.58;;
49183;SDS011;35021;49.214;12.270;2023-07-13T03:58:28;3.90;;;2.00;;
49183;SDS011;35021;49.214;12.270;2023-07-13T04:01:06;3.78;;;2.40;;
49183;SDS011;35021;49.214;12.270;2023-07-13T04:03:35;5.45;;;2.30;;
49183;SDS011;35021;49.214;12.270;2023-07-13T04:06:04;4.07;;;2.50;;
49183;SDS011;35021;49.214;12.270;2023-07-13T04:08:33;4.07;;;2.50;;
49183;SDS011;35021;49.214;12.270;2023-07-13T04:11:24;3.70;;;2.60;;
49183;SDS011;35021;49.214;12.270;2023-07-13T04:13:53;9.13;;;2.72;;
49183;SDS011;35021;49.214;12.270;2023-07-13T04:16:21;7.10;;;2.83;;
49183;SDS011;35021;49.214;12.270;2023-07-13T04:18:48;4.72;;;2.80;;
49183;SDS011;35021;49.214;12.270;2023-07-13T04:21:16;6.88;;;2.88;;
49183;SDS011;35021;49.214;12.270;2023-07-13T04:23:44;5.53;;;2.70;;
49183;SDS011;35021;49.214;12.270;2023-07-13T04:26:11;5.32;;;3.47;;
49183;SDS011;35021;49.214;12.270;2023-07-13T04:28:39;4.68;;;2.80;;
49183;SDS011;35021;49.214;12.270;2023-07-13T04:31:07;4.78;;;2.92;;
49183;SDS011;35021;49.214;12.270;2023-07-13T04:33:34;3.75;;;2.53;;
49183;SDS011;35021;49.214;12.270;2023-07-13T04:36:01;6.53;;;2.60;;
49183;SDS011;35021;49.214;12.270;2023-07-13T04:38:29;3.80;;;2.72;;
49183;SDS011;35021;49.214;12.270;2023-07-13T04:40:58;3.33;;;2.38;;
49183;SDS011;35021;49.214;12.270;2023-07-13T04:43:27;5.97;;;2.42;;
49183;SDS011;35021;49.214;12.270;2023-07-13T04:45:55;3.58;;;2.47;;
49183;SDS011;35021;49.214;12.270;2023-07-13T04:48:23;4.22;;;2.75;;
49183;SDS011;35021;49.214;12.270;2023-07-13T04:50:57;5.03;;;2.95;;
49183;SDS011;35021;49.214;12.270;2023-07-13T04:53:25;4.13;;;2.50;;
49183;SDS011;35021;49.214;12.270;2023-07-13T04:55:53;5.72;;;2.80;;
49183;SDS011;35021;49.214;12.270;2023-07-13T04:58:20;7.35;;;2.60;;
49183;SDS011;35021;49.214;12.270;2023-07-13T05:00:48;3.33;;;2.35;;
49183;SDS011;35021;49.214;12.270;2023-07-13T05:03:15;6.60;;;2.22;;
49183;SDS011;35021;49.214;12.270;2023-07-13T05:05:53;7.78;;;2.75;;
49183;SDS011;35021;49.214;12.270;2023-07-13T05:08:40;2.70;;;2.27;;
49183;SDS011;35021;49.214;12.270;2023-07-13T05:11:30;5.97;;;2.58;;
49183;SDS011;35021;49.214;12.270;2023-07-13T05:23:16;4.75;;;2.35;;
49183;SDS011;35021;49.214;12.270;2023-07-13T05:26:14;2.92;;;2.22;;
49183;SDS011;35021;49.214;12.270;2023-07-13T05:28:53;4.00;;;1.98;;
49183;SDS011;35021;49.214;12.270;2023-07-13T05:31:27;4.22;;;2.38;;
49183;SDS011;35021;49.214;12.270;2023-07-13T05:34:12;3.20;;;1.92;;
49183;SDS011;35021;49.214;12.270;2023-07-13T05:46:01;4.85;;;2.40;;
49183;SDS011;35021;49.214;12.270;2023-07-13T05:49:34;3.88;;;2.30;;
49183;SDS011;35021;49.214;12.270;2023-07-13T05:53:16;3.15;;;2.03;;
49183;SDS011;35021;49.214;12.270;2023-07-13T05:56:09;6.28;;;2.30;;
49183;SDS011;35021;49.214;12.270;2023-07-13T05:58:50;4.88;;;2.22;;
49183;SDS011;35021;49.214;12.270;2023-07-13T06:01:30;3.05;;;2.30;;
49183;SDS011;35021;49.214;12.270;2023-07-13T06:04:00;2.55;;;1.63;;
49183;SDS011;35021;49.214;12.270;2023-07-13T06:06:29;2.58;;;1.67;;
49183;SDS011;35021;49.214;12.270;2023-07-13T06:08:56;2.50;;;2.00;;
49183;SDS011;35021;49.214;12.270;2023-07-13T06:11:31;3.53;;;2.13;;
49183;SDS011;35021;49.214;12.270;2023-07-13T06:14:29;3.15;;;1.67;;
49183;SDS011;35021;49.214;12.270;2023-07-13T06:17:03;3.85;;;2.22;;
49183;SDS011;35021;49.214;12.270;2023-07-13T06:19:46;2.20;;;1.65;;
49183;SDS011;35021;49.214;12.270;2023-07-13T06:22:48;2.90;;;2.10;;
49183;SDS011;35021;49.214;12.270;2023-07-13T06:25:17;3.55;;;1.85;;
49183;SDS011;35021;49.214;12.270;2023-07-13T06:27:47;2.63;;;1.88;;
49183;SDS011;35021;49.214;12.270;2023-07-13T06:30:27;2.60;;;1.80;;
49183;SDS011;35021;49.214;12.270;2023-07-13T06:32:56;3.63;;;1.88;;
49183;SDS011;35021;49.214;12.270;2023-07-13T06:35:42;2.40;;;1.85;;
49183;SDS011;35021;49.214;12.270;2023-07-13T06:38:09;3.03;;;1.95;;
49183;SDS011;35021;49.214;12.270;2023-07-13T06:40:36;2.20;;;1.63;;
49183;SDS011;35021;49.214;12.270;2023-07-13T06:43:03;1.50;;;1.38;;
49183;SDS011;35021;49.214;12.270;2023-07-13T06:45:29;3.80;;;1.88;;
49183;SDS011;35021;49.214;12.270;2023-07-13T06:47:56;3.78;;;1.90;;
49183;SDS011;35021;49.214;12.270;2023-07-13T06:50:23;3.30;;;2.03;;
49183;SDS011;35021;49.214;12.270;2023-07-13T06:52:50;2.45;;;1.70;;
49183;SDS011;35021;49.214;12.270;2023-07-13T06:55:17;2.33;;;1.60;;
49183;SDS011;35021;49.214;12.270;2023-07-13T06:57:45;1.67;;;1.40;;
49183;SDS011;35021;49.214;12.270;2023-07-13T07:00:12;2.95;;;1.67;;
49183;SDS011;35021;49.214;12.270;2023-07-13T07:02:39;2.45;;;1.50;;
49183;SDS011;35021;49.214;12.270;2023-07-13T07:05:07;2.80;;;1.42;;
49183;SDS011;35021;49.214;12.270;2023-07-13T07:07:34;2.45;;;1.90;;
49183;SDS011;35021;49.214;12.270;2023-07-13T07:10:02;3.20;;;1.73;;
49183;SDS011;35021;49.214;12.270;2023-07-13T07:12:29;1.98;;;1.50;;
49183;SDS011;35021;49.214;12.270;2023-07-13T07:14:57;4.40;;;1.73;;
49183;SDS011;35021;49.214;12.270;2023-07-13T07:17:24;2.13;;;1.63;;
49183;SDS011;35021;49.214;12.270;2023-07-13T07:19:52;2.42;;;1.77;;
49183;SDS011;35021;49.214;12.270;2023-07-13T07:22:22;3.33;;;1.58;;
49183;SDS011;35021;49.214;12.270;2023-07-13T07:24:49;2.30;;;1.80;;
49183;SDS011;35021;49.214;12.270;2023-07-13T07:27:16;2.15;;;1.58;;
49183;SDS011;35021;49.214;12.270;2023-07-13T07:29:46;1.60;;;1.50;;
49183;SDS011;35021;49.214;12.270;2023-07-13T07:32:33;3.83;;;1.70;;
49183;SDS011;35021;49.214;12.270;2023-07-13T07:35:04;2.15;;;1.60;;
49183;SDS011;35021;49.214;12.270;2023-07-13T07:37:31;4.15;;;1.70;;
49183;SDS011;35021;49.214;12.270;2023-07-13T07:40:01;2.00;;;1.80;;
49183;SDS011;35021;49.214;12.270;2023-07-13T07:42:31;2.60;;;1.33;;
49183;SDS011;35021;49.214;12.270;2023-07-13T07:44:59;1.80;;;1.65;;
49183;SDS011;35021;49.214;12.270;2023-07-13T07:47:27;1.80;;;1.60;;
49183;SDS011;35021;49.214;12.270;2023-07-13T07:49:57;2.60;;;1.88;;
49183;SDS011;35021;49.214;12.270;2023-07-13T07:52:24;2.08;;;1.40;;
49183;SDS011;35021;49.214;12.270;2023-07-13T07:54:51;1.98;;;1.70;;
49183;SDS011;35021;49.214;12.270;2023-07-13T07:57:21;1.83;;;1.52;;
49183;SDS011;35021;49.214;12.270;2023-07-13T07:59:51;2.65;;;1.38;;
49183;SDS011;35021;49.214;12.270;2023-07-13T08:02:21;1.50;;;1.23;;
49183;SDS011;35021;49.214;12.270;2023-07-13T08:04:51;1.73;;;1.30;;
49183;SDS011;35021;49.214;12.270;2023-07-13T08:07:21;2.70;;;1.50;;
49183;SDS011;35021;49.214;12.270;2023-07-13T08:09:51;2.53;;;1.50;;
49183;SDS011;35021;49.214;12.270;2023-07-13T08:12:19;1.48;;;1.25;;
49183;SDS011;35021;49.214;12.270;2023-07-13T08:15:06;2.50;;;1.70;;
49183;SDS011;35021;49.214;12.270;2023-07-13T08:17:37;1.90;;;1.40;;
49183;SDS011;35021;49.214;12.270;2023-07-13T08:20:04;1.60;;;1.33;;
49183;SDS011;35021;49.214;12.270;2023-07-13T08:22:32;1.80;;;1.20;;
49183;SDS011;35021;49.214;12.270;2023-07-13T08:24:59;2.33;;;1.50;;
49183;SDS011;35021;49.214;12.270;2023-07-13T08:27:27;1.60;;;1.40;;
49183;SDS011;35021;49.214;12.270;2023-07-13T08:29:55;1.83;;;1.33;;
49183;SDS011;35021;49.214;12.270;2023-07-13T08:32:22;2.15;;;1.40;;
49183;SDS011;35021;49.214;12.270;2023-07-13T08:34:50;3.03;;;1.52;;
49183;SDS011;35021;49.214;12.270;2023-07-13T08:37:18;1.48;;;1.27;;
49183;SDS011;35021;49.214;12.270;2023-07-13T08:39:46;1.98;;;1.23;;
49183;SDS011;35021;49.214;12.270;2023-07-13T08:48:18;1.73;;;1.30;;
49183;SDS011;35021;49.214;12.270;2023-07-13T08:53:51;2.35;;;1.30;;
49183;SDS011;35021;49.214;12.270;2023-07-13T08:56:28;1.98;;;1.40;;
49183;SDS011;35021;49.214;12.270;2023-07-13T08:59:18;2.17;;;1.20;;
49183;SDS011;35021;49.214;12.270;2023-07-13T09:04:38;2.10;;;1.40;;
49183;SDS011;35021;49.214;12.270;2023-07-13T09:10:14;2.40;;;1.30;;
49183;SDS011;35021;49.214;12.270;2023-07-13T09:12:47;1.80;;;1.10;;
49183;SDS011;35021;49.214;12.270;2023-07-13T09:15:38;1.10;;;1.00;;
49183;SDS011;35021;49.214;12.270;2023-07-13T09:23:10;2.35;;;1.35;;
49183;SDS011;35021;49.214;12.270;2023-07-13T09:25:41;1.25;;;1.00;;
49183;SDS011;35021;49.214;12.270;2023-07-13T09:28:26;2.50;;;1.05;;
49183;SDS011;35021;49.214;12.270;2023-07-13T09:31:01;1.50;;;1.10;;
49183;SDS011;35021;49.214;12.270;2023-07-13T09:33:46;1.38;;;1.00;;
49183;SDS011;35021;49.214;12.270;2023-07-13T09:36:21;1.67;;;1.02;;
49183;SDS011;35021;49.214;12.270;2023-07-13T09:46:40;2.72;;;1.30;;
49183;SDS011;35021;49.214;12.270;2023-07-13T09:49:24;2.10;;;1.10;;
49183;SDS011;35021;49.214;12.270;2023-07-13T09:52:12;1.40;;;1.00;;
49183;SDS011;35021;49.214;12.270;2023-07-13T09:54:49;1.52;;;1.30;;
49183;SDS011;35021;49.214;12.270;2023-07-13T09:57:18;2.33;;;1.07;;
49183;SDS011;35021;49.214;12.270;2023-07-13T10:00:00;2.53;;;1.27;;
49183;SDS011;35021;49.214;12.270;2023-07-13T10:02:32;2.78;;;1.20;;
49183;SDS011;35021;49.214;12.270;2023-07-13T10:05:05;2.22;;;1.20;;
49183;SDS011;35021;49.214;12.270;2023-07-13T10:07:40;4.05;;;1.02;;
49183;SDS011;35021;49.214;12.270;2023-07-13T10:10:19;1.67;;;1.05;;
49183;SDS011;35021;49.214;12.270;2023-07-13T10:12:49;1.95;;;1.20;;
49183;SDS011;35021;49.214;12.270;2023-07-13T10:15:19;1.27;;;1.00;;
49183;SDS011;35021;49.214;12.270;2023-07-13T10:17:52;2.78;;;1.30;;
49183;SDS011;35021;49.214;12.270;2023-07-13T10:20:24;1.83;;;1.10;;
49183;SDS011;35021;49.214;12.270;2023-07-13T10:23:02;1.98;;;1.13;;
49183;SDS011;35021;49.214;12.270;2023-07-13T10:25:35;1.60;;;1.15;;
49183;SDS011;35021;49.214;12.270;2023-07-13T10:28:27;2.42;;;1.27;;
49183;SDS011;35021;49.214;12.270;2023-07-13T10:31:01;2.78;;;1.10;;
49183;SDS011;35021;49.214;12.270;2023-07-13T10:33:32;1.83;;;1.20;;
49183;SDS011;35021;49.214;12.270;2023-07-13T10:36:19;2.00;;;1.08;;
49183;SDS011;35021;49.214;12.270;2023-07-13T10:38:56;1.52;;;0.98;;
49183;SDS011;35021;49.214;12.270;2023-07-13T10:41:28;1.52;;;0.90;;
49183;SDS011;35021;49.214;12.270;2023-07-13T10:43:58;2.30;;;1.25;;
49183;SDS011;35021;49.214;12.270;2023-07-13T10:46:27;1.85;;;0.98;;
49183;SDS011;35021;49.214;12.270;2023-07-13T10:49:00;1.55;;;1.00;;
49183;SDS011;35021;49.214;12.270;2023-07-13T10:51:31;3.80;;;1.35;;
49183;SDS011;35021;49.214;12.270;2023-07-13T10:54:32;1.67;;;1.00;;
49183;SDS011;35021;49.214;12.270;2023-07-13T10:59:43;1.80;;;1.23;;
49183;SDS011;35021;49.214;12.270;2023-07-13T11:02:21;2.75;;;1.63;;
49183;SDS011;35021;49.214;12.270;2023-07-13T11:04:55;1.30;;;0.95;;
49183;SDS011;35021;49.214;12.270;2023-07-13T11:07:27;2.35;;;1.23;;
49183;SDS011;35021;49.214;12.270;2023-07-13T11:09:57;2.10;;;1.17;;
49183;SDS011;35021;49.214;12.270;2023-07-13T11:12:27;4.93;;;1.95;;
49183;SDS011;35021;49.214;12.270;2023-07-13T11:15:15;1.70;;;1.20;;
49183;SDS011;35021;49.214;12.270;2023-07-13T11:17:56;1.65;;;1.10;;
49183;SDS011;35021;49.214;12.270;2023-07-13T11:20:31;1.60;;;1.10;;
49183;SDS011;35021;49.214;12.270;2023-07-13T11:25:54;2.03;;;1.27;;
49183;SDS011;35021;49.214;12.270;2023-07-13T11:28:22;2.15;;;1.20;;
49183;SDS011;35021;49.214;12.270;2023-07-13T11:33:24;1.75;;;1.00;;
49183;SDS011;35021;49.214;12.270;2023-07-13T11:38:39;2.28;;;1.08;;
49183;SDS011;35021;49.214;12.270;2023-07-13T11:44:14;2.22;;;1.10;;
49183;SDS011;35021;49.214;12.270;2023-07-13T11:46:44;1.30;;;0.93;;
49183;SDS011;35021;49.214;12.270;2023-07-13T11:49:21;2.60;;;1.10;;
49183;SDS011;35021;49.214;12.270;2023-07-13T11:51:54;2.00;;;1.00;;
49183;SDS011;35021;49.214;12.270;2023-07-13T11:59:58;2.08;;;0.75;;
49183;SDS011;35021;49.214;12.270;2023-07-13T12:02:33;2.25;;;1.05;;
49183;SDS011;35021;49.214;12.270;2023-07-13T12:05:05;1.25;;;0.90;;
49183;SDS011;35021;49.214;12.270;2023-07-13T12:07:36;1.38;;;1.00;;
49183;SDS011;35021;49.214;12.270;2023-07-13T12:12:48;3.33;;;1.45;;
49183;SDS011;35021;49.214;12.270;2023-07-13T12:15:20;2.22;;;1.10;;
49183;SDS011;35021;49.214;12.270;2023-07-13T12:17:55;1.73;;;1.08;;
49183;SDS011;35021;49.214;12.270;2023-07-13T12:20:24;1.67;;;0.88;;
49183;SDS011;35021;49.214;12.270;2023-07-13T12:22:54;2.13;;;0.98;;
49183;SDS011;35021;49.214;12.270;2023-07-13T12:25:28;1.63;;;1.02;;
49183;SDS011;35021;49.214;12.270;2023-07-13T12:27:56;1.23;;;1.08;;
49183;SDS011;35021;49.214;12.270;2023-07-13T12:33:23;1.13;;;0.70;;
49183;SDS011;35021;49.214;12.270;2023-07-13T12:35:51;2.97;;;1.20;;
49183;SDS011;35021;49.214;12.270;2023-07-13T12:38:19;4.05;;;1.55;;
49183;SDS011;35021;49.214;12.270;2023-07-13T12:40:49;1.98;;;1.00;;
49183;SDS011;35021;49.214;12.270;2023-07-13T12:43:17;2.17;;;1.20;;
49183;SDS011;35021;49.214;12.270;2023-07-13T12:45:58;1.15;;;0.90;;
49183;SDS011;35021;49.214;12.270;2023-07-13T12:48:28;1.45;;;0.93;;
49183;SDS011;35021;49.214;12.270;2023-07-13T12:51:12;1.23;;;0.85;;
49183;SDS011;35021;49.214;12.270;2023-07-13T12:53:50;2.33;;;0.90;;
49183;SDS011;35021;49.214;12.270;2023-07-13T12:56:24;2.58;;;0.88;;
49183;SDS011;35021;49.214;12.270;2023-07-13T12:58:57;1.90;;;1.00;;
49183;SDS011;35021;49.214;12.270;2023-07-13T13:01:29;1.02;;;0.80;;
49183;SDS011;35021;49.214;12.270;2023-07-13T13:04:00;1.40;;;1.00;;
49183;SDS011;35021;49.214;12.270;2023-07-13T13:06:33;1.40;;;0.88;;
49183;SDS011;35021;49.214;12.270;2023-07-13T13:09:03;2.45;;;1.08;;
49183;SDS011;35021;49.214;12.270;2023-07-13T13:11:35;1.15;;;0.85;;
49183;SDS011;35021;49.214;12.270;2023-07-13T13:14:02;1.98;;;0.90;;
49183;SDS011;35021;49.214;12.270;2023-07-13T13:16:31;2.20;;;0.80;;
49183;SDS011;35021;49.214;12.270;2023-07-13T13:19:05;1.58;;;0.85;;
49183;SDS011;35021;49.214;12.270;2023-07-13T13:21:45;2.63;;;1.02;;
49183;SDS011;35021;49.214;12.270;2023-07-13T13:24:15;2.08;;;0.80;;
49183;SDS011;35021;49.214;12.270;2023-07-13T13:26:43;2.33;;;1.05;;
49183;SDS011;35021;49.214;12.270;2023-07-13T13:29:16;1.45;;;0.90;;
49183;SDS011;35021;49.214;12.270;2023-07-13T13:31:45;1.00;;;0.70;;
49183;SDS011;35021;49.214;12.270;2023-07-13T13:34:16;2.53;;;1.00;;
49183;SDS011;35021;49.214;12.270;2023-07-13T13:36:45;2.10;;;0.93;;
49183;SDS011;35021;49.214;12.270;2023-07-13T13:39:21;2.25;;;1.02;;
49183;SDS011;35021;49.214;12.270;2023-07-13T13:41:56;1.98;;;0.95;;
49183;SDS011;35021;49.214;12.270;2023-07-13T13:44:23;1.10;;;0.82;;
49183;SDS011;35021;49.214;12.270;2023-07-13T13:46:52;1.77;;;0.90;;
49183;SDS011;35021;49.214;12.270;2023-07-13T13:49:22;2.03;;;1.00;;
49183;SDS011;35021;49.214;12.270;2023-07-13T13:51:52;1.35;;;0.88;;
49183;SDS011;35021;49.214;12.270;2023-07-13T13:54:23;3.30;;;0.90;;
49183;SDS011;35021;49.214;12.270;2023-07-13T13:56:51;1.90;;;0.80;;
49183;SDS011;35021;49.214;12.270;2023-07-13T13:59:19;1.83;;;0.70;;
49183;SDS011;35021;49.214;12.270;2023-07-13T14:01:46;2.28;;;1.45;;
49183;SDS011;35021;49.214;12.270;2023-07-13T14:04:19;2.50;;;1.20;;
49183;SDS011;35021;49.214;12.270;2023-07-13T14:06:48;1.65;;;0.90;;
49183;SDS011;35021;49.214;12.270;2023-07-13T14:09:16;1.83;;;0.95;;
49183;SDS011;35021;49.214;12.270;2023-07-13T14:11:46;1.80;;;1.00;;
49183;SDS011;35021;49.214;12.270;2023-07-13T14:14:18;1.92;;;1.00;;
49183;SDS011;35021;49.214;12.270;2023-07-13T14:16:49;1.63;;;0.80;;
49183;SDS011;35021;49.214;12.270;2023-07-13T14:19:20;1.17;;;0.80;;
49183;SDS011;35021;49.214;12.270;2023-07-13T14:21:48;1.88;;;0.73;;
49183;SDS011;35021;49.214;12.270;2023-07-13T14:24:16;1.10;;;0.80;;
49183;SDS011;35021;49.214;12.270;2023-07-13T14:26:45;1.13;;;0.90;;
49183;SDS011;35021;49.214;12.270;2023-07-13T14:29:15;2.03;;;1.00;;
49183;SDS011;35021;49.214;12.270;2023-07-13T14:31:48;1.83;;;1.10;;
49183;SDS011;35021;49.214;12.270;2023-07-13T14:34:16;1.73;;;0.90;;
49183;SDS011;35021;49.214;12.270;2023-07-13T14:36:44;1.35;;;0.90;;
49183;SDS011;35021;49.214;12.270;2023-07-13T14:39:18;1.70;;;1.10;;
49183;SDS011;35021;49.214;12.270;2023-07-13T14:41:52;3.13;;;1.02;;
49183;SDS011;35021;49.214;12.270;2023-07-13T14:44:23;2.03;;;0.90;;
49183;SDS011;35021;49.214;12.270;2023-07-13T14:46:55;1.08;;;0.70;;
49183;SDS011;35021;49.214;12.270;2023-07-13T14:49:28;2.58;;;1.23;;
49183;SDS011;35021;49.214;12.270;2023-07-13T14:52:00;2.45;;;0.90;;
49183;SDS011;35021;49.214;12.270;2023-07-13T14:54:30;2.65;;;0.90;;
49183;SDS011;35021;49.214;12.270;2023-07-13T14:56:58;1.63;;;0.82;;
49183;SDS011;35021;49.214;12.270;2023-07-13T14:59:24;1.63;;;1.00;;
49183;SDS011;35021;49.214;12.270;2023-07-13T15:01:51;3.10;;;1.10;;
49183;SDS011;35021;49.214;12.270;2023-07-13T15:04:18;3.67;;;1.08;;
49183;SDS011;35021;49.214;12.270;2023-07-13T15:06:55;2.17;;;1.00;;
49183;SDS011;35021;49.214;12.270;2023-07-13T15:09:26;1.50;;;0.90;;
49183;SDS011;35021;49.214;12.270;2023-07-13T15:11:56;2.03;;;1.25;;
49183;SDS011;35021;49.214;12.270;2023-07-13T15:14:24;2.50;;;1.02;;
49183;SDS011;35021;49.214;12.270;2023-07-13T15:16:53;1.88;;;1.00;;
49183;SDS011;35021;49.214;12.270;2023-07-13T15:19:22;2.28;;;1.17;;
49183;SDS011;35021;49.214;12.270;2023-07-13T15:21:54;1.88;;;1.05;;
49183;SDS011;35021;49.214;12.270;2023-07-13T15:24:27;1.80;;;0.95;;
49183;SDS011;35021;49.214;12.270;2023-07-13T15:26:55;1.95;;;0.85;;
49183;SDS011;35021;49.214;12.270;2023-07-13T15:29:22;2.10;;;1.10;;
49183;SDS011;35021;49.214;12.270;2023-07-13T15:31:49;2.05;;;1.00;;
49183;SDS011;35021;49.214;12.270;2023-07-13T15:34:18;1.95;;;1.00;;
49183;SDS011;35021;49.214;12.270;2023-07-13T15:36:47;2.67;;;1.00;;
49183;SDS011;35021;49.214;12.270;2023-07-13T15:39:15;1.60;;;0.82;;
49183;SDS011;35021;49.214;12.270;2023-07-13T15:41:44;1.52;;;0.90;;
49183;SDS011;35021;49.214;12.270;2023-07-13T15:44:27;3.58;;;1.02;;
49183;SDS011;35021;49.214;12.270;2023-07-13T15:46:57;2.03;;;0.93;;
49183;SDS011;35021;49.214;12.270;2023-07-13T15:49:27;2.63;;;0.95;;
49183;SDS011;35021;49.214;12.270;2023-07-13T15:51:54;2.45;;;1.00;;
49183;SDS011;35021;49.214;12.270;2023-07-13T15:54:21;3.08;;;1.33;;
49183;SDS011;35021;49.214;12.270;2023-07-13T15:56:54;1.98;;;1.00;;
49183;SDS011;35021;49.214;12.270;2023-07-13T15:59:26;1.50;;;0.85;;
49183;SDS011;35021;49.214;12.270;2023-07-13T16:01:54;1.40;;;0.98;;
49183;SDS011;35021;49.214;12.270;2023-07-13T16:04:21;1.48;;;0.90;;
49183;SDS011;35021;49.214;12.270;2023-07-13T16:06:48;1.50;;;0.80;;
49183;SDS011;35021;49.214;12.270;2023-07-13T16:09:18;1.17;;;0.85;;
49183;SDS011;35021;49.214;12.270;2023-07-13T16:11:49;2.22;;;1.13;;